Black River (Missouri), Poplar Bluff (07063000)

StateMissouriLatestHigh (2590 cfs)
RiverBlack RiverRatingObservedEstimated
Updated2020-02-25 15:15 (47 minutes ago)Flood - The river is flooding. Obstacles can be treacherous or deadly. The river should be avoided at this stage for casual trips and definitely for the inexperienced. Trips should be attempted only with protective gear and equipment.Flood(none)4089
Discharge2590 cfs (median: 1440 cfs)High - The river is high and potentially dangerous, especially for the young and / or inexperienced. Normal stream obstacles are sometimes difficult to navigate. Extended distances can be attempted, but canoe travel may not be advisable.High(none)1897
Height6.45 feetGood - Conditions are ideal for a canoe or kayak. Boats typically will drag on fewer than one-quarter of riffles, if at all, and portages are unnecessary or rare. Normal float lengths can be attempted without a problem.Good(none)962
TrendSteady (rising over 24 hours)Low - River is low but can still be floated. Some riffles are okay but most come with significant dragging and might need a portage. Float lengths should be reduced to accommodate low flow, dragging, and portages.Low(none)636
USGSExternal icon USGS Site (External icon Google Maps)Poor - River is too low to float comfortably. Most or all riffles will drag or must be portaged and some obstacles (such as slick shelf rock) cause undue problems. Avoid the river at this stage for casual paddling trips.Poor(none)338

Trending Data

Plot Image

Trips for Black River (Missouri), Poplar Bluff (07063000)

DateStartEndDistanceConditionDischargeHeightFishingDetails

A total of 0 rows are displayed.

Condition Descriptions

Fishing Conditions

Fish Species

Notes

Classic Trip List

The classic River Trips application is still available for use. It is updated with the new system using a data retrofit. It is no longer maintained. The original River Trips application is no longer updated (as of 1 Dec 2016) but can be checked for errors or for the condition of the data before it was converted to the new system.

Gauge Data Table

ObservationHeightDischargeMaximum
Discharge
Minimum
Discharge
Mean
Discharge
P05P10P20P25P50
(Median)
P75P80P90P95
2020-02-25 15:15 6.45 2590 7070 (2018) 336 (1963) 2000 645 695 875 1030 1440 2750 3160 4290 4880
2020-02-25 14:15 6.45 2590 7070 (2018) 336 (1963) 2000 645 695 875 1030 1440 2750 3160 4290 4880
2020-02-25 13:15 6.46 2590 7070 (2018) 336 (1963) 2000 645 695 875 1030 1440 2750 3160 4290 4880
2020-02-25 12:15 6.47 2600 7070 (2018) 336 (1963) 2000 645 695 875 1030 1440 2750 3160 4290 4880
2020-02-25 11:15 6.49 2610 7070 (2018) 336 (1963) 2000 645 695 875 1030 1440 2750 3160 4290 4880
2020-02-25 10:15 6.50 2610 7070 (2018) 336 (1963) 2000 645 695 875 1030 1440 2750 3160 4290 4880
2020-02-25 09:15 6.53 2620 7070 (2018) 336 (1963) 2000 645 695 875 1030 1440 2750 3160 4290 4880
2020-02-25 08:15 6.54 2620 7070 (2018) 336 (1963) 2000 645 695 875 1030 1440 2750 3160 4290 4880
2020-02-25 07:15 6.55 2630 7070 (2018) 336 (1963) 2000 645 695 875 1030 1440 2750 3160 4290 4880
2020-02-25 06:15 6.55 2630 7070 (2018) 336 (1963) 2000 645 695 875 1030 1440 2750 3160 4290 4880
2020-02-25 05:15 6.55 2630 7070 (2018) 336 (1963) 2000 645 695 875 1030 1440 2750 3160 4290 4880
2020-02-25 04:15 6.53 2620 7070 (2018) 336 (1963) 2000 645 695 875 1030 1440 2750 3160 4290 4880
2020-02-25 03:15 6.50 2610 7070 (2018) 336 (1963) 2000 645 695 875 1030 1440 2750 3160 4290 4880
2020-02-25 02:15 6.44 2590 7070 (2018) 336 (1963) 2000 645 695 875 1030 1440 2750 3160 4290 4880
2020-02-25 01:15 6.36 2560 7070 (2018) 336 (1963) 2000 645 695 875 1030 1440 2750 3160 4290 4880
2020-02-25 00:15 6.25 2520 7070 (2018) 336 (1963) 2000 645 695 875 1030 1440 2750 3160 4290 4880
2020-02-24 23:15 6.12 2470 6690 (1985) 338 (1963) 1950 652 699 870 979 1540 2540 3130 4220 4600
2020-02-24 22:15 5.97 2410 6690 (1985) 338 (1963) 1950 652 699 870 979 1540 2540 3130 4220 4600
2020-02-24 21:15 5.82 2360 6690 (1985) 338 (1963) 1950 652 699 870 979 1540 2540 3130 4220 4600
2020-02-24 20:15 5.67 2310 6690 (1985) 338 (1963) 1950 652 699 870 979 1540 2540 3130 4220 4600
2020-02-24 19:15 5.53 2260 6690 (1985) 338 (1963) 1950 652 699 870 979 1540 2540 3130 4220 4600
2020-02-24 18:15 5.37 2200 6690 (1985) 338 (1963) 1950 652 699 870 979 1540 2540 3130 4220 4600
2020-02-24 17:15 5.22 2150 6690 (1985) 338 (1963) 1950 652 699 870 979 1540 2540 3130 4220 4600
2020-02-24 16:15 4.90 2030 6690 (1985) 338 (1963) 1950 652 699 870 979 1540 2540 3130 4220 4600
2020-02-24 15:15 4.77 1990 6690 (1985) 338 (1963) 1950 652 699 870 979 1540 2540 3130 4220 4600
2020-02-24 14:15 4.69 1960 6690 (1985) 338 (1963) 1950 652 699 870 979 1540 2540 3130 4220 4600
2020-02-24 13:15 4.63 1940 6690 (1985) 338 (1963) 1950 652 699 870 979 1540 2540 3130 4220 4600
2020-02-24 12:15 4.55 1910 6690 (1985) 338 (1963) 1950 652 699 870 979 1540 2540 3130 4220 4600
2020-02-24 11:15 4.46 1880 6690 (1985) 338 (1963) 1950 652 699 870 979 1540 2540 3130 4220 4600
2020-02-24 10:15 4.41 1860 6690 (1985) 338 (1963) 1950 652 699 870 979 1540 2540 3130 4220 4600
2020-02-24 09:15 4.35 1840 6690 (1985) 338 (1963) 1950 652 699 870 979 1540 2540 3130 4220 4600
2020-02-24 08:15 4.31 1820 6690 (1985) 338 (1963) 1950 652 699 870 979 1540 2540 3130 4220 4600
2020-02-24 07:15 4.26 1810 6690 (1985) 338 (1963) 1950 652 699 870 979 1540 2540 3130 4220 4600
2020-02-24 06:15 4.24 1800 6690 (1985) 338 (1963) 1950 652 699 870 979 1540 2540 3130 4220 4600
2020-02-24 05:15 4.24 1800 6690 (1985) 338 (1963) 1950 652 699 870 979 1540 2540 3130 4220 4600
2020-02-24 04:15 4.21 1790 6690 (1985) 338 (1963) 1950 652 699 870 979 1540 2540 3130 4220 4600
2020-02-24 03:15 4.19 1780 6690 (1985) 338 (1963) 1950 652 699 870 979 1540 2540 3130 4220 4600
2020-02-24 02:15 4.16 1770 6690 (1985) 338 (1963) 1950 652 699 870 979 1540 2540 3130 4220 4600
2020-02-24 01:15 4.16 1770 6690 (1985) 338 (1963) 1950 652 699 870 979 1540 2540 3130 4220 4600
2020-02-24 00:15 4.17 1770 6690 (1985) 338 (1963) 1950 652 699 870 979 1540 2540 3130 4220 4600
2020-02-23 23:15 4.17 1770 5380 (1985) 348 (1963) 1990 623 688 822 954 1430 2990 3520 4080 4530
2020-02-23 22:15 4.17 1770 5380 (1985) 348 (1963) 1990 623 688 822 954 1430 2990 3520 4080 4530
2020-02-23 21:15 4.17 1770 5380 (1985) 348 (1963) 1990 623 688 822 954 1430 2990 3520 4080 4530
2020-02-23 20:15 4.19 1780 5380 (1985) 348 (1963) 1990 623 688 822 954 1430 2990 3520 4080 4530
2020-02-23 19:15 4.19 1780 5380 (1985) 348 (1963) 1990 623 688 822 954 1430 2990 3520 4080 4530
2020-02-23 18:15 4.21 1790 5380 (1985) 348 (1963) 1990 623 688 822 954 1430 2990 3520 4080 4530
2020-02-23 17:15 4.20 1790 5380 (1985) 348 (1963) 1990 623 688 822 954 1430 2990 3520 4080 4530
2020-02-23 16:15 4.22 1790 5380 (1985) 348 (1963) 1990 623 688 822 954 1430 2990 3520 4080 4530
2020-02-23 15:15 4.22 1790 5380 (1985) 348 (1963) 1990 623 688 822 954 1430 2990 3520 4080 4530
2020-02-23 14:15 4.23 1800 5380 (1985) 348 (1963) 1990 623 688 822 954 1430 2990 3520 4080 4530
2020-02-23 13:15 4.24 1800 5380 (1985) 348 (1963) 1990 623 688 822 954 1430 2990 3520 4080 4530
2020-02-23 12:15 4.25 1800 5380 (1985) 348 (1963) 1990 623 688 822 954 1430 2990 3520 4080 4530
2020-02-23 11:15 4.26 1810 5380 (1985) 348 (1963) 1990 623 688 822 954 1430 2990 3520 4080 4530
2020-02-23 10:15 4.26 1810 5380 (1985) 348 (1963) 1990 623 688 822 954 1430 2990 3520 4080 4530
2020-02-23 09:15 4.28 1810 5380 (1985) 348 (1963) 1990 623 688 822 954 1430 2990 3520 4080 4530
2020-02-23 08:15 4.29 1820 5380 (1985) 348 (1963) 1990 623 688 822 954 1430 2990 3520 4080 4530
2020-02-23 07:15 4.30 1820 5380 (1985) 348 (1963) 1990 623 688 822 954 1430 2990 3520 4080 4530
2020-02-23 06:15 4.31 1820 5380 (1985) 348 (1963) 1990 623 688 822 954 1430 2990 3520 4080 4530
2020-02-23 05:15 4.33 1830 5380 (1985) 348 (1963) 1990 623 688 822 954 1430 2990 3520 4080 4530
2020-02-23 04:15 4.34 1830 5380 (1985) 348 (1963) 1990 623 688 822 954 1430 2990 3520 4080 4530
2020-02-23 03:15 4.34 1830 5380 (1985) 348 (1963) 1990 623 688 822 954 1430 2990 3520 4080 4530
2020-02-23 02:15 4.37 1840 5380 (1985) 348 (1963) 1990 623 688 822 954 1430 2990 3520 4080 4530
2020-02-23 01:15 4.38 1850 5380 (1985) 348 (1963) 1990 623 688 822 954 1430 2990 3520 4080 4530
2020-02-23 00:15 4.39 1850 5380 (1985) 348 (1963) 1990 623 688 822 954 1430 2990 3520 4080 4530
2020-02-22 23:15 4.41 1860 4770 (1949) 360 (1963) 1940 566 708 866 992 1570 2750 3200 3910 4450
2020-02-22 22:15 4.43 1870 4770 (1949) 360 (1963) 1940 566 708 866 992 1570 2750 3200 3910 4450
2020-02-22 21:15 4.44 1870 4770 (1949) 360 (1963) 1940 566 708 866 992 1570 2750 3200 3910 4450
2020-02-22 20:15 4.46 1880 4770 (1949) 360 (1963) 1940 566 708 866 992 1570 2750 3200 3910 4450
2020-02-22 19:15 4.49 1890 4770 (1949) 360 (1963) 1940 566 708 866 992 1570 2750 3200 3910 4450
2020-02-22 18:15 4.50 1890 4770 (1949) 360 (1963) 1940 566 708 866 992 1570 2750 3200 3910 4450
2020-02-22 17:15 4.52 1900 4770 (1949) 360 (1963) 1940 566 708 866 992 1570 2750 3200 3910 4450
2020-02-22 16:15 4.55 1910 4770 (1949) 360 (1963) 1940 566 708 866 992 1570 2750 3200 3910 4450
2020-02-22 15:15 4.58 1920 4770 (1949) 360 (1963) 1940 566 708 866 992 1570 2750 3200 3910 4450
2020-02-22 14:15 4.61 1930 4770 (1949) 360 (1963) 1940 566 708 866 992 1570 2750 3200 3910 4450
2020-02-22 13:15 4.64 1940 4770 (1949) 360 (1963) 1940 566 708 866 992 1570 2750 3200 3910 4450
2020-02-22 12:15 4.69 1960 4770 (1949) 360 (1963) 1940 566 708 866 992 1570 2750 3200 3910 4450
2020-02-22 11:15 4.71 1960 4770 (1949) 360 (1963) 1940 566 708 866 992 1570 2750 3200 3910 4450
2020-02-22 10:15 4.76 1980 4770 (1949) 360 (1963) 1940 566 708 866 992 1570 2750 3200 3910 4450
2020-02-22 09:15 4.81 2000 4770 (1949) 360 (1963) 1940 566 708 866 992 1570 2750 3200 3910 4450
2020-02-22 08:15 4.86 2020 4770 (1949) 360 (1963) 1940 566 708 866 992 1570 2750 3200 3910 4450
2020-02-22 07:15 4.91 2040 4770 (1949) 360 (1963) 1940 566 708 866 992 1570 2750 3200 3910 4450
2020-02-22 06:15 4.95 2050 4770 (1949) 360 (1963) 1940 566 708 866 992 1570 2750 3200 3910 4450
2020-02-22 05:15 5.00 2070 4770 (1949) 360 (1963) 1940 566 708 866 992 1570 2750 3200 3910 4450
2020-02-22 04:15 5.04 2080 4770 (1949) 360 (1963) 1940 566 708 866 992 1570 2750 3200 3910 4450
2020-02-22 03:15 5.09 2100 4770 (1949) 360 (1963) 1940 566 708 866 992 1570 2750 3200 3910 4450
2020-02-22 02:15 5.13 2110 4770 (1949) 360 (1963) 1940 566 708 866 992 1570 2750 3200 3910 4450
2020-02-22 01:15 5.15 2120 4770 (1949) 360 (1963) 1940 566 708 866 992 1570 2750 3200 3910 4450
2020-02-22 00:15 5.18 2130 4770 (1949) 360 (1963) 1940 566 708 866 992 1570 2750 3200 3910 4450
2020-02-21 23:15 5.21 2140 5880 (1951) 366 (1963) 1830 573 719 895 943 1390 2300 3010 3890 4340
2020-02-21 22:15 5.24 2150 5880 (1951) 366 (1963) 1830 573 719 895 943 1390 2300 3010 3890 4340
2020-02-21 21:15 5.26 2160 5880 (1951) 366 (1963) 1830 573 719 895 943 1390 2300 3010 3890 4340
2020-02-21 20:15 5.30 2170 5880 (1951) 366 (1963) 1830 573 719 895 943 1390 2300 3010 3890 4340
2020-02-21 19:15 5.31 2180 5880 (1951) 366 (1963) 1830 573 719 895 943 1390 2300 3010 3890 4340
2020-02-21 18:15 5.34 2190 5880 (1951) 366 (1963) 1830 573 719 895 943 1390 2300 3010 3890 4340
2020-02-21 17:15 5.38 2200 5880 (1951) 366 (1963) 1830 573 719 895 943 1390 2300 3010 3890 4340
2020-02-21 16:15 5.41 2210 5880 (1951) 366 (1963) 1830 573 719 895 943 1390 2300 3010 3890 4340
2020-02-21 15:15 5.45 2230 5880 (1951) 366 (1963) 1830 573 719 895 943 1390 2300 3010 3890 4340
2020-02-21 14:15 5.47 2230 5880 (1951) 366 (1963) 1830 573 719 895 943 1390 2300 3010 3890 4340
2020-02-21 13:15 5.53 2260 5880 (1951) 366 (1963) 1830 573 719 895 943 1390 2300 3010 3890 4340
2020-02-21 12:15 5.58 2270 5880 (1951) 366 (1963) 1830 573 719 895 943 1390 2300 3010 3890 4340
2020-02-21 11:15 5.63 2290 5880 (1951) 366 (1963) 1830 573 719 895 943 1390 2300 3010 3890 4340
2020-02-21 10:15 5.68 2310 5880 (1951) 366 (1963) 1830 573 719 895 943 1390 2300 3010 3890 4340
2020-02-21 09:15 5.74 2330 5880 (1951) 366 (1963) 1830 573 719 895 943 1390 2300 3010 3890 4340
2020-02-21 08:15 5.81 2360 5880 (1951) 366 (1963) 1830 573 719 895 943 1390 2300 3010 3890 4340
2020-02-21 07:15 5.87 2380 5880 (1951) 366 (1963) 1830 573 719 895 943 1390 2300 3010 3890 4340
2020-02-21 06:15 5.95 2410 5880 (1951) 366 (1963) 1830 573 719 895 943 1390 2300 3010 3890 4340
2020-02-21 05:15 6.00 2420 5880 (1951) 366 (1963) 1830 573 719 895 943 1390 2300 3010 3890 4340
2020-02-21 04:15 6.10 2460 5880 (1951) 366 (1963) 1830 573 719 895 943 1390 2300 3010 3890 4340
2020-02-21 03:15 6.16 2480 5880 (1951) 366 (1963) 1830 573 719 895 943 1390 2300 3010 3890 4340
2020-02-21 02:15 6.23 2510 5880 (1951) 366 (1963) 1830 573 719 895 943 1390 2300 3010 3890 4340
2020-02-21 01:15 6.32 2540 5880 (1951) 366 (1963) 1830 573 719 895 943 1390 2300 3010 3890 4340
2020-02-21 00:15 6.39 2570 5880 (1951) 366 (1963) 1830 573 719 895 943 1390 2300 3010 3890 4340
2020-02-20 23:15 6.47 2600 4980 (1949) 371 (1963) 1740 609 696 851 904 1270 2050 2600 3790 4300
2020-02-20 22:15 6.55 2630 4980 (1949) 371 (1963) 1740 609 696 851 904 1270 2050 2600 3790 4300
2020-02-20 21:15 6.62 2650 4980 (1949) 371 (1963) 1740 609 696 851 904 1270 2050 2600 3790 4300
2020-02-20 20:15 6.71 2690 4980 (1949) 371 (1963) 1740 609 696 851 904 1270 2050 2600 3790 4300
2020-02-20 19:15 6.81 2720 4980 (1949) 371 (1963) 1740 609 696 851 904 1270 2050 2600 3790 4300
2020-02-20 18:15 6.89 2750 4980 (1949) 371 (1963) 1740 609 696 851 904 1270 2050 2600 3790 4300
2020-02-20 17:15 7.00 2790 4980 (1949) 371 (1963) 1740 609 696 851 904 1270 2050 2600 3790 4300
2020-02-20 16:15 7.12 2840 4980 (1949) 371 (1963) 1740 609 696 851 904 1270 2050 2600 3790 4300
2020-02-20 15:15 7.24 2880 4980 (1949) 371 (1963) 1740 609 696 851 904 1270 2050 2600 3790 4300
2020-02-20 14:15 7.36 2930 4980 (1949) 371 (1963) 1740 609 696 851 904 1270 2050 2600 3790 4300
2020-02-20 13:15 7.50 2980 4980 (1949) 371 (1963) 1740 609 696 851 904 1270 2050 2600 3790 4300
2020-02-20 12:15 7.63 3030 4980 (1949) 371 (1963) 1740 609 696 851 904 1270 2050 2600 3790 4300
2020-02-20 11:15 7.78 3090 4980 (1949) 371 (1963) 1740 609 696 851 904 1270 2050 2600 3790 4300
2020-02-20 10:15 7.96 3150 4980 (1949) 371 (1963) 1740 609 696 851 904 1270 2050 2600 3790 4300
2020-02-20 09:15 8.12 3210 4980 (1949) 371 (1963) 1740 609 696 851 904 1270 2050 2600 3790 4300
2020-02-20 08:15 8.28 3270 4980 (1949) 371 (1963) 1740 609 696 851 904 1270 2050 2600 3790 4300
2020-02-20 07:15 8.43 3330 4980 (1949) 371 (1963) 1740 609 696 851 904 1270 2050 2600 3790 4300
2020-02-20 06:15 8.59 3390 4980 (1949) 371 (1963) 1740 609 696 851 904 1270 2050 2600 3790 4300
2020-02-20 05:15 8.74 3450 4980 (1949) 371 (1963) 1740 609 696 851 904 1270 2050 2600 3790 4300
2020-02-20 04:15 8.85 3490 4980 (1949) 371 (1963) 1740 609 696 851 904 1270 2050 2600 3790 4300
2020-02-20 03:15 8.96 3530 4980 (1949) 371 (1963) 1740 609 696 851 904 1270 2050 2600 3790 4300
2020-02-20 02:15 9.06 3570 4980 (1949) 371 (1963) 1740 609 696 851 904 1270 2050 2600 3790 4300
2020-02-20 01:15 9.13 3590 4980 (1949) 371 (1963) 1740 609 696 851 904 1270 2050 2600 3790 4300
2020-02-20 00:15 9.16 3610 4980 (1949) 371 (1963) 1740 609 696 851 904 1270 2050 2600 3790 4300
2020-02-19 23:15 9.21 3630 5090 (1949) 371 (1963) 1720 580 670 821 889 1270 2140 2850 3890 4220
2020-02-19 22:15 9.24 3640 5090 (1949) 371 (1963) 1720 580 670 821 889 1270 2140 2850 3890 4220
2020-02-19 21:15 9.26 3640 5090 (1949) 371 (1963) 1720 580 670 821 889 1270 2140 2850 3890 4220
2020-02-19 20:15 9.28 3650 5090 (1949) 371 (1963) 1720 580 670 821 889 1270 2140 2850 3890 4220
2020-02-19 19:15 9.30 3660 5090 (1949) 371 (1963) 1720 580 670 821 889 1270 2140 2850 3890 4220
2020-02-19 18:15 9.31 3660 5090 (1949) 371 (1963) 1720 580 670 821 889 1270 2140 2850 3890 4220
2020-02-19 17:15 9.35 3680 5090 (1949) 371 (1963) 1720 580 670 821 889 1270 2140 2850 3890 4220
2020-02-19 16:15 9.36 3680 5090 (1949) 371 (1963) 1720 580 670 821 889 1270 2140 2850 3890 4220
2020-02-19 15:15 9.38 3690 5090 (1949) 371 (1963) 1720 580 670 821 889 1270 2140 2850 3890 4220
2020-02-19 14:15 9.39 3690 5090 (1949) 371 (1963) 1720 580 670 821 889 1270 2140 2850 3890 4220
2020-02-19 13:15 9.42 3700 5090 (1949) 371 (1963) 1720 580 670 821 889 1270 2140 2850 3890 4220
2020-02-19 12:15 9.42 3700 5090 (1949) 371 (1963) 1720 580 670 821 889 1270 2140 2850 3890 4220
2020-02-19 11:15 9.46 3720 5090 (1949) 371 (1963) 1720 580 670 821 889 1270 2140 2850 3890 4220
2020-02-19 10:15 9.48 3730 5090 (1949) 371 (1963) 1720 580 670 821 889 1270 2140 2850 3890 4220
2020-02-19 09:15 9.50 3740 5090 (1949) 371 (1963) 1720 580 670 821 889 1270 2140 2850 3890 4220
2020-02-19 08:15 9.51 3740 5090 (1949) 371 (1963) 1720 580 670 821 889 1270 2140 2850 3890 4220
2020-02-19 07:15 9.52 3740 5090 (1949) 371 (1963) 1720 580 670 821 889 1270 2140 2850 3890 4220
2020-02-19 06:15 9.56 3760 5090 (1949) 371 (1963) 1720 580 670 821 889 1270 2140 2850 3890 4220
2020-02-19 05:15 9.58 3770 5090 (1949) 371 (1963) 1720 580 670 821 889 1270 2140 2850 3890 4220
2020-02-19 04:15 9.59 3770 5090 (1949) 371 (1963) 1720 580 670 821 889 1270 2140 2850 3890 4220
2020-02-19 03:15 9.62 3780 5090 (1949) 371 (1963) 1720 580 670 821 889 1270 2140 2850 3890 4220
2020-02-19 02:15 9.64 3790 5090 (1949) 371 (1963) 1720 580 670 821 889 1270 2140 2850 3890 4220
2020-02-19 01:15 9.64 3790 5090 (1949) 371 (1963) 1720 580 670 821 889 1270 2140 2850 3890 4220
2020-02-19 00:15 9.65 3790 5090 (1949) 371 (1963) 1720 580 670 821 889 1270 2140 2850 3890 4220
2020-02-18 23:15 9.67 3800 5210 (1949) 371 (1963) 1740 558 670 813 874 1200 2270 2760 4040 4220
2020-02-18 22:15 9.68 3810 5210 (1949) 371 (1963) 1740 558 670 813 874 1200 2270 2760 4040 4220
2020-02-18 21:15 9.70 3810 5210 (1949) 371 (1963) 1740 558 670 813 874 1200 2270 2760 4040 4220
2020-02-18 20:15 9.70 3810 5210 (1949) 371 (1963) 1740 558 670 813 874 1200 2270 2760 4040 4220
2020-02-18 19:15 9.70 3810 5210 (1949) 371 (1963) 1740 558 670 813 874 1200 2270 2760 4040 4220
2020-02-18 18:15 9.72 3820 5210 (1949) 371 (1963) 1740 558 670 813 874 1200 2270 2760 4040 4220
2020-02-18 17:15 9.73 3830 5210 (1949) 371 (1963) 1740 558 670 813 874 1200 2270 2760 4040 4220
2020-02-18 16:15 9.75 3840 5210 (1949) 371 (1963) 1740 558 670 813 874 1200 2270 2760 4040 4220
2020-02-18 15:15 9.74 3830 5210 (1949) 371 (1963) 1740 558 670 813 874 1200 2270 2760 4040 4220
2020-02-18 14:15 9.74 3830 5210 (1949) 371 (1963) 1740 558 670 813 874 1200 2270 2760 4040 4220
2020-02-18 13:15 9.74 3830 5210 (1949) 371 (1963) 1740 558 670 813 874 1200 2270 2760 4040 4220
2020-02-18 12:15 9.76 3840 5210 (1949) 371 (1963) 1740 558 670 813 874 1200 2270 2760 4040 4220
2020-02-18 11:15 9.74 3830 5210 (1949) 371 (1963) 1740 558 670 813 874 1200 2270 2760 4040 4220
2020-02-18 10:15 9.76 3840 5210 (1949) 371 (1963) 1740 558 670 813 874 1200 2270 2760 4040 4220
2020-02-18 09:15 9.76 3840 5210 (1949) 371 (1963) 1740 558 670 813 874 1200 2270 2760 4040 4220
2020-02-18 08:15 9.77 3840 5210 (1949) 371 (1963) 1740 558 670 813 874 1200 2270 2760 4040 4220
2020-02-18 07:15 9.76 3840 5210 (1949) 371 (1963) 1740 558 670 813 874 1200 2270 2760 4040 4220
2020-02-18 06:15 9.77 3840 5210 (1949) 371 (1963) 1740 558 670 813 874 1200 2270 2760 4040 4220
2020-02-18 05:15 9.78 3850 5210 (1949) 371 (1963) 1740 558 670 813 874 1200 2270 2760 4040 4220
2020-02-18 04:15 9.77 3840 5210 (1949) 371 (1963) 1740 558 670 813 874 1200 2270 2760 4040 4220
2020-02-18 03:15 9.79 3850 5210 (1949) 371 (1963) 1740 558 670 813 874 1200 2270 2760 4040 4220
2020-02-18 02:15 9.80 3860 5210 (1949) 371 (1963) 1740 558 670 813 874 1200 2270 2760 4040 4220
2020-02-18 01:15 9.81 3860 5210 (1949) 371 (1963) 1740 558 670 813 874 1200 2270 2760 4040 4220
2020-02-18 00:15 9.82 3870 5210 (1949) 371 (1963) 1740 558 670 813 874 1200 2270 2760 4040 4220

A total of 184 rows are displayed for years 1949 through 2019.